POE9000 SBSJ-TBPB
Flight info
| Callsign | POE9000 |
|---|---|
| Flight time | N/A |
| Altitude | 38000 |
| Route | SBSJ/16 VUSM3A GERKA UZ26 ISMOB UZ26 IBGAM UL576 NISKI UL576 TRAPP UA555 BGI |
| Aircraft | E195/M-SDE3GILORVW/S |
Departure
| Time | N/A |
|---|---|
| Airport | Professor Urbano Ernesto Stumpf Airport (SBSJ) |
Arrival
| Time | 2026-05-06 04:31 |
|---|---|
| Airport | Grantley Adams International Airport (TBPB) |
| Time | Latitude | Longitude | Altitude | Speed | Heading |
|---|---|---|---|---|---|
| 2026-05-06 02:48 | 3.33039 | -54.83365 | 40076 ft | 455 kts | 350° |
| 2026-05-06 02:48 | 3.36159 | -54.83879 | 40073 ft | 454 kts | 350° |
| 2026-05-06 02:49 | 3.42449 | -54.84916 | 40062 ft | 454 kts | 350° |
| 2026-05-06 02:49 | 3.48672 | -54.85943 | 40058 ft | 453 kts | 350° |
| 2026-05-06 02:50 | 3.54891 | -54.86968 | 40054 ft | 453 kts | 350° |
| 2026-05-06 02:50 | 3.61157 | -54.88002 | 40051 ft | 452 kts | 350° |
| 2026-05-06 02:51 | 3.67362 | -54.89026 | 40049 ft | 453 kts | 350° |
| 2026-05-06 02:51 | 3.73576 | -54.90051 | 40051 ft | 452 kts | 350° |
| 2026-05-06 02:52 | 3.79813 | -54.91080 | 40048 ft | 451 kts | 350° |
| 2026-05-06 02:52 | 3.86018 | -54.92104 | 40048 ft | 451 kts | 350° |
| 2026-05-06 02:53 | 3.92201 | -54.93125 | 40043 ft | 450 kts | 350° |
| 2026-05-06 02:53 | 3.98432 | -54.94153 | 40042 ft | 450 kts | 350° |
| 2026-05-06 02:54 | 4.04595 | -54.95171 | 40043 ft | 450 kts | 350° |
| 2026-05-06 02:54 | 4.10808 | -54.96197 | 40045 ft | 451 kts | 349° |
| 2026-05-06 02:55 | 4.17044 | -54.97227 | 40044 ft | 450 kts | 349° |
| 2026-05-06 02:55 | 4.23203 | -54.98244 | 40048 ft | 450 kts | 350° |
| 2026-05-06 02:56 | 4.29408 | -54.99270 | 40044 ft | 451 kts | 349° |
| 2026-05-06 02:56 | 4.35626 | -55.00297 | 40043 ft | 450 kts | 350° |
| 2026-05-06 02:57 | 4.41802 | -55.01318 | 40039 ft | 451 kts | 349° |
| 2026-05-06 02:57 | 4.48023 | -55.02346 | 40034 ft | 450 kts | 349° |
| 2026-05-06 02:58 | 4.54238 | -55.03374 | 40036 ft | 451 kts | 349° |
| 2026-05-06 02:58 | 4.60436 | -55.04399 | 40034 ft | 451 kts | 349° |
| 2026-05-06 02:59 | 4.66629 | -55.05423 | 40032 ft | 452 kts | 349° |
| 2026-05-06 02:59 | 4.72861 | -55.06454 | 40031 ft | 452 kts | 349° |
| 2026-05-06 03:00 | 4.79089 | -55.07484 | 40030 ft | 451 kts | 349° |
| 2026-05-06 03:00 | 4.85298 | -55.08512 | 40032 ft | 451 kts | 350° |
| 2026-05-06 03:01 | 4.91503 | -55.09539 | 40033 ft | 451 kts | 350° |
| 2026-05-06 03:01 | 4.97704 | -55.10566 | 40034 ft | 453 kts | 349° |
| 2026-05-06 03:02 | 5.03964 | -55.11602 | 40033 ft | 453 kts | 349° |
| 2026-05-06 03:02 | 5.10184 | -55.12632 | 40034 ft | 452 kts | 349° |
| 2026-05-06 03:03 | 5.16394 | -55.13661 | 40029 ft | 453 kts | 349° |
| 2026-05-06 03:03 | 5.22615 | -55.14691 | 40032 ft | 453 kts | 349° |
| 2026-05-06 03:04 | 5.28887 | -55.15731 | 40029 ft | 453 kts | 349° |
| 2026-05-06 03:04 | 5.35117 | -55.16763 | 40034 ft | 454 kts | 349° |
| 2026-05-06 03:05 | 5.41349 | -55.17796 | 40030 ft | 453 kts | 349° |
| 2026-05-06 03:05 | 5.47541 | -55.18940 | 40034 ft | 453 kts | 346° |
| 2026-05-06 03:06 | 5.53716 | -55.20318 | 40027 ft | 453 kts | 346° |
| 2026-05-06 03:06 | 5.59878 | -55.21679 | 40024 ft | 453 kts | 346° |
| 2026-05-06 03:07 | 5.66043 | -55.23038 | 40023 ft | 453 kts | 347° |
| 2026-05-06 03:07 | 5.72235 | -55.24404 | 40018 ft | 453 kts | 346° |
| 2026-05-06 03:08 | 5.78385 | -55.25762 | 40016 ft | 453 kts | 346° |
| 2026-05-06 03:08 | 5.84555 | -55.27124 | 40015 ft | 453 kts | 346° |
| 2026-05-06 03:09 | 5.90720 | -55.28485 | 40014 ft | 452 kts | 347° |
| 2026-05-06 03:09 | 5.96874 | -55.29844 | 40012 ft | 453 kts | 347° |
| 2026-05-06 03:10 | 6.03036 | -55.31205 | 40014 ft | 453 kts | 347° |
| 2026-05-06 03:10 | 6.09180 | -55.32562 | 40009 ft | 452 kts | 347° |
| 2026-05-06 03:11 | 6.15371 | -55.33930 | 40004 ft | 453 kts | 346° |
| 2026-05-06 03:11 | 6.21508 | -55.35287 | 40007 ft | 452 kts | 346° |
| 2026-05-06 03:12 | 6.27686 | -55.36653 | 40007 ft | 452 kts | 346° |
| 2026-05-06 03:12 | 6.33823 | -55.38010 | 40006 ft | 452 kts | 346° |
| 2026-05-06 03:13 | 6.39981 | -55.39372 | 40011 ft | 451 kts | 346° |
| 2026-05-06 03:13 | 6.46142 | -55.40735 | 40011 ft | 452 kts | 346° |
| 2026-05-06 03:14 | 6.52290 | -55.42096 | 40015 ft | 452 kts | 346° |
| 2026-05-06 03:14 | 6.58435 | -55.43456 | 40016 ft | 452 kts | 346° |
| 2026-05-06 03:15 | 6.64571 | -55.44815 | 40015 ft | 452 kts | 346° |
| 2026-05-06 03:15 | 6.70712 | -55.46175 | 40015 ft | 451 kts | 346° |
| 2026-05-06 03:16 | 6.76887 | -55.47543 | 40017 ft | 451 kts | 346° |
| 2026-05-06 03:16 | 6.83029 | -55.48904 | 40017 ft | 452 kts | 346° |
| 2026-05-06 03:17 | 6.89194 | -55.50270 | 40016 ft | 452 kts | 346° |
| 2026-05-06 03:17 | 6.95322 | -55.51629 | 40019 ft | 451 kts | 346° |
| 2026-05-06 03:18 | 7.01475 | -55.52993 | 40012 ft | 451 kts | 346° |
| 2026-05-06 03:18 | 7.07589 | -55.54350 | 40008 ft | 451 kts | 346° |
| 2026-05-06 03:19 | 7.13730 | -55.55712 | 40010 ft | 451 kts | 346° |
| 2026-05-06 03:19 | 7.19895 | -55.57081 | 40007 ft | 451 kts | 346° |
| 2026-05-06 03:20 | 7.29101 | -55.59124 | 40005 ft | 451 kts | 346° |
| 2026-05-06 03:20 | 7.35246 | -55.60489 | 40005 ft | 451 kts | 346° |
| 2026-05-06 03:21 | 7.41381 | -55.61852 | 40006 ft | 450 kts | 346° |
| 2026-05-06 03:21 | 7.47485 | -55.63209 | 40006 ft | 450 kts | 346° |
| 2026-05-06 03:22 | 7.53641 | -55.64577 | 40006 ft | 450 kts | 346° |
| 2026-05-06 03:22 | 7.59751 | -55.65935 | 40010 ft | 450 kts | 346° |
| 2026-05-06 03:23 | 7.65881 | -55.67299 | 40009 ft | 450 kts | 346° |
| 2026-05-06 03:23 | 7.71999 | -55.68661 | 40008 ft | 450 kts | 346° |
| 2026-05-06 03:24 | 7.78152 | -55.70030 | 40012 ft | 451 kts | 346° |
| 2026-05-06 03:24 | 7.84299 | -55.71398 | 40011 ft | 450 kts | 346° |
| 2026-05-06 03:25 | 7.90401 | -55.72757 | 40006 ft | 450 kts | 346° |
| 2026-05-06 03:25 | 7.96531 | -55.74123 | 40012 ft | 449 kts | 346° |
| 2026-05-06 03:26 | 8.02633 | -55.75482 | 40010 ft | 449 kts | 346° |
| 2026-05-06 03:26 | 8.08736 | -55.76843 | 40008 ft | 449 kts | 346° |
| 2026-05-06 03:27 | 8.14873 | -55.78211 | 40011 ft | 449 kts | 345° |
| 2026-05-06 03:27 | 8.21012 | -55.79580 | 40012 ft | 450 kts | 346° |
| 2026-05-06 03:28 | 8.27108 | -55.80940 | 40013 ft | 451 kts | 346° |
| 2026-05-06 03:28 | 8.33280 | -55.82318 | 40014 ft | 451 kts | 346° |
| 2026-05-06 03:29 | 8.39404 | -55.83685 | 40018 ft | 451 kts | 346° |
| 2026-05-06 03:29 | 8.45546 | -55.85056 | 40018 ft | 450 kts | 346° |
| 2026-05-06 03:30 | 8.51681 | -55.86427 | 40019 ft | 450 kts | 346° |
| 2026-05-06 03:30 | 8.57779 | -55.87790 | 40021 ft | 451 kts | 346° |
| 2026-05-06 03:31 | 8.63944 | -55.89167 | 40026 ft | 451 kts | 346° |
| 2026-05-06 03:31 | 8.70082 | -55.90540 | 40025 ft | 451 kts | 346° |
| 2026-05-06 03:32 | 8.76226 | -55.91915 | 40025 ft | 452 kts | 346° |
| 2026-05-06 03:32 | 8.82350 | -55.93285 | 40023 ft | 452 kts | 346° |
| 2026-05-06 03:33 | 8.88503 | -55.94662 | 40029 ft | 451 kts | 346° |
| 2026-05-06 03:33 | 8.94648 | -55.96038 | 40029 ft | 451 kts | 346° |
| 2026-05-06 03:34 | 9.00781 | -55.97412 | 40028 ft | 452 kts | 346° |
| 2026-05-06 03:34 | 9.06888 | -55.99039 | 40032 ft | 450 kts | 336° |
| 2026-05-06 03:35 | 9.12218 | -56.02259 | 40035 ft | 446 kts | 318° |
| 2026-05-06 03:35 | 9.16923 | -56.06389 | 40031 ft | 447 kts | 318° |
| 2026-05-06 03:36 | 9.21646 | -56.10462 | 40026 ft | 447 kts | 318° |
| 2026-05-06 03:36 | 9.26374 | -56.14534 | 40028 ft | 447 kts | 318° |
| 2026-05-06 03:37 | 9.31132 | -56.18632 | 40029 ft | 448 kts | 318° |
| 2026-05-06 03:37 | 9.35870 | -56.22715 | 40028 ft | 449 kts | 318° |
| 2026-05-06 03:38 | 9.40610 | -56.26801 | 40025 ft | 448 kts | 319° |
| 2026-05-06 03:38 | 9.45354 | -56.30891 | 40028 ft | 448 kts | 318° |
| 2026-05-06 03:39 | 9.50091 | -56.34977 | 40028 ft | 448 kts | 319° |
| 2026-05-06 03:39 | 9.54862 | -56.39095 | 40027 ft | 448 kts | 319° |
| 2026-05-06 03:40 | 9.59585 | -56.43172 | 40030 ft | 449 kts | 319° |
| 2026-05-06 03:40 | 9.64370 | -56.47304 | 40029 ft | 449 kts | 319° |
| 2026-05-06 03:41 | 9.69120 | -56.51408 | 40029 ft | 450 kts | 319° |
| 2026-05-06 03:41 | 9.73876 | -56.55519 | 40029 ft | 449 kts | 319° |
| 2026-05-06 03:42 | 9.78627 | -56.59626 | 40029 ft | 449 kts | 319° |
| 2026-05-06 03:42 | 9.83379 | -56.63736 | 40027 ft | 449 kts | 319° |
| 2026-05-06 03:43 | 9.88126 | -56.67844 | 40028 ft | 450 kts | 319° |
| 2026-05-06 03:43 | 9.92894 | -56.71971 | 40028 ft | 451 kts | 319° |
| 2026-05-06 03:44 | 9.97673 | -56.76110 | 40028 ft | 450 kts | 319° |
| 2026-05-06 03:44 | 10.02446 | -56.80245 | 40029 ft | 450 kts | 319° |
| 2026-05-06 03:45 | 10.07191 | -56.84357 | 40027 ft | 450 kts | 319° |
| 2026-05-06 03:45 | 10.11967 | -56.88498 | 40029 ft | 449 kts | 319° |
| 2026-05-06 03:46 | 10.16712 | -56.92614 | 40031 ft | 451 kts | 319° |
| 2026-05-06 03:46 | 10.21496 | -56.96765 | 40034 ft | 452 kts | 319° |
| 2026-05-06 03:47 | 10.26265 | -57.00905 | 40036 ft | 452 kts | 319° |
| 2026-05-06 03:47 | 10.31039 | -57.05050 | 40036 ft | 452 kts | 320° |
| 2026-05-06 03:48 | 10.35832 | -57.09214 | 40035 ft | 452 kts | 320° |
| 2026-05-06 03:48 | 10.40618 | -57.13374 | 40035 ft | 453 kts | 320° |
| 2026-05-06 03:49 | 10.45383 | -57.17518 | 40038 ft | 453 kts | 320° |
| 2026-05-06 03:49 | 10.50176 | -57.21687 | 40036 ft | 452 kts | 320° |
| 2026-05-06 03:50 | 10.54951 | -57.25843 | 40039 ft | 450 kts | 320° |
| 2026-05-06 03:50 | 10.59702 | -57.29979 | 40038 ft | 450 kts | 320° |
| 2026-05-06 03:51 | 10.64448 | -57.34112 | 40039 ft | 450 kts | 320° |
| 2026-05-06 03:51 | 10.69200 | -57.38253 | 40038 ft | 450 kts | 320° |
| 2026-05-06 03:52 | 10.73939 | -57.42384 | 40038 ft | 449 kts | 320° |
| 2026-05-06 03:52 | 10.78699 | -57.46536 | 40038 ft | 450 kts | 320° |
| 2026-05-06 03:53 | 10.83437 | -57.50670 | 40037 ft | 448 kts | 320° |
| 2026-05-06 03:53 | 10.88165 | -57.54796 | 40037 ft | 448 kts | 320° |
| 2026-05-06 03:54 | 10.92896 | -57.58927 | 40036 ft | 449 kts | 320° |
| 2026-05-06 03:54 | 10.97627 | -57.63061 | 40040 ft | 449 kts | 320° |
| 2026-05-06 03:55 | 11.02369 | -57.67205 | 40043 ft | 449 kts | 320° |
| 2026-05-06 03:55 | 11.07122 | -57.71361 | 40048 ft | 450 kts | 320° |
| 2026-05-06 03:56 | 11.11854 | -57.75501 | 40049 ft | 449 kts | 320° |
| 2026-05-06 03:56 | 11.16610 | -57.79663 | 40050 ft | 448 kts | 320° |
| 2026-05-06 03:57 | 11.21324 | -57.83790 | 40050 ft | 448 kts | 320° |
| 2026-05-06 03:57 | 11.26055 | -57.87935 | 40050 ft | 448 kts | 320° |
| 2026-05-06 03:58 | 11.30771 | -57.92067 | 40050 ft | 449 kts | 320° |
| 2026-05-06 03:58 | 11.35517 | -57.96228 | 40049 ft | 449 kts | 320° |
| 2026-05-06 03:59 | 11.40235 | -58.00367 | 40049 ft | 449 kts | 320° |
| 2026-05-06 03:59 | 11.44975 | -58.04526 | 40050 ft | 449 kts | 320° |
| 2026-05-06 04:00 | 11.49716 | -58.08688 | 40048 ft | 449 kts | 319° |
| 2026-05-06 04:00 | 11.54401 | -58.12804 | 40042 ft | 437 kts | 319° |
| 2026-05-06 04:01 | 11.58994 | -58.16840 | 39725 ft | 440 kts | 320° |
| 2026-05-06 04:01 | 11.61303 | -58.18870 | 39255 ft | 438 kts | 320° |
| 2026-05-06 04:01 | 11.63640 | -58.20924 | 38762 ft | 438 kts | 320° |
| 2026-05-06 04:02 | 11.65944 | -58.22951 | 38295 ft | 439 kts | 320° |
| 2026-05-06 04:02 | 11.68251 | -58.24979 | 37814 ft | 441 kts | 320° |
| 2026-05-06 04:02 | 11.70582 | -58.27031 | 37327 ft | 442 kts | 319° |
| 2026-05-06 04:02 | 11.72917 | -58.29086 | 36839 ft | 443 kts | 319° |
| 2026-05-06 04:03 | 11.75247 | -58.31137 | 36348 ft | 442 kts | 319° |
| 2026-05-06 04:03 | 11.77561 | -58.33174 | 35862 ft | 443 kts | 319° |
| 2026-05-06 04:03 | 11.79885 | -58.35220 | 35374 ft | 444 kts | 319° |
| 2026-05-06 04:03 | 11.82238 | -58.37293 | 34880 ft | 445 kts | 319° |
| 2026-05-06 04:04 | 11.84569 | -58.39347 | 34390 ft | 446 kts | 319° |
| 2026-05-06 04:04 | 11.86934 | -58.41431 | 33894 ft | 447 kts | 319° |
| 2026-05-06 04:04 | 11.89282 | -58.43500 | 33402 ft | 449 kts | 319° |
| 2026-05-06 04:04 | 11.91647 | -58.45586 | 32904 ft | 450 kts | 319° |
| 2026-05-06 04:05 | 11.94026 | -58.47684 | 32425 ft | 453 kts | 319° |
| 2026-05-06 04:05 | 11.96397 | -58.49776 | 31935 ft | 454 kts | 319° |
| 2026-05-06 04:05 | 11.98805 | -58.51900 | 31752 ft | 452 kts | 319° |
| 2026-05-06 04:05 | 12.01172 | -58.53991 | 31706 ft | 453 kts | 319° |
| 2026-05-06 04:06 | 12.05944 | -58.58211 | 31596 ft | 454 kts | 319° |
| 2026-05-06 04:06 | 12.10705 | -58.62428 | 31484 ft | 454 kts | 319° |
| 2026-05-06 04:07 | 12.15506 | -58.66688 | 31369 ft | 454 kts | 318° |
| 2026-05-06 04:07 | 12.20264 | -58.70918 | 31257 ft | 455 kts | 318° |
| 2026-05-06 04:08 | 12.25041 | -58.75171 | 31146 ft | 455 kts | 318° |
| 2026-05-06 04:08 | 12.29817 | -58.79432 | 31032 ft | 455 kts | 318° |
| 2026-05-06 04:09 | 12.34575 | -58.83685 | 30919 ft | 456 kts | 318° |
| 2026-05-06 04:09 | 12.39353 | -58.87963 | 30803 ft | 455 kts | 318° |
| 2026-05-06 04:10 | 12.44110 | -58.92228 | 30690 ft | 454 kts | 318° |
| 2026-05-06 04:10 | 12.48977 | -58.96338 | 29424 ft | 466 kts | 319° |
| 2026-05-06 04:11 | 12.51430 | -58.98478 | 27929 ft | 458 kts | 317° |
| 2026-05-06 04:11 | 12.53776 | -59.00550 | 26557 ft | 442 kts | 317° |
| 2026-05-06 04:11 | 12.56049 | -59.02565 | 25267 ft | 430 kts | 317° |
| 2026-05-06 04:11 | 12.58277 | -59.04543 | 23989 ft | 422 kts | 317° |
| 2026-05-06 04:12 | 12.60443 | -59.06467 | 22760 ft | 413 kts | 317° |
| 2026-05-06 04:12 | 12.62580 | -59.08365 | 21571 ft | 405 kts | 318° |
| 2026-05-06 04:12 | 12.64688 | -59.10239 | 20405 ft | 396 kts | 319° |
| 2026-05-06 04:12 | 12.66720 | -59.12045 | 19277 ft | 388 kts | 319° |
| 2026-05-06 04:13 | 12.68731 | -59.13832 | 18158 ft | 380 kts | 320° |
| 2026-05-06 04:13 | 12.70700 | -59.15583 | 17055 ft | 372 kts | 320° |
| 2026-05-06 04:13 | 12.72617 | -59.17287 | 15999 ft | 366 kts | 321° |
| 2026-05-06 04:13 | 12.74490 | -59.18953 | 15480 ft | 355 kts | 321° |
| 2026-05-06 04:14 | 12.76372 | -59.20627 | 15057 ft | 355 kts | 321° |
| 2026-05-06 04:14 | 12.78220 | -59.22271 | 14659 ft | 355 kts | 321° |
| 2026-05-06 04:14 | 12.80104 | -59.23948 | 14258 ft | 354 kts | 321° |
| 2026-05-06 04:14 | 12.81951 | -59.25592 | 13866 ft | 353 kts | 322° |
| 2026-05-06 04:15 | 12.83811 | -59.27248 | 13472 ft | 351 kts | 322° |
| 2026-05-06 04:15 | 12.85635 | -59.28872 | 13088 ft | 349 kts | 322° |
| 2026-05-06 04:15 | 12.87469 | -59.30506 | 12701 ft | 348 kts | 322° |
| 2026-05-06 04:15 | 12.89284 | -59.32121 | 12324 ft | 347 kts | 322° |
| 2026-05-06 04:16 | 12.91115 | -59.33753 | 11937 ft | 346 kts | 322° |
| 2026-05-06 04:16 | 12.92916 | -59.35359 | 11550 ft | 342 kts | 321° |
| 2026-05-06 04:16 | 12.94700 | -59.36949 | 11174 ft | 334 kts | 321° |
| 2026-05-06 04:16 | 12.96133 | -59.38750 | 11103 ft | 331 kts | 296° |
| 2026-05-06 04:17 | 12.96585 | -59.41054 | 11086 ft | 334 kts | 267° |
| 2026-05-06 04:17 | 12.96088 | -59.43386 | 11093 ft | 336 kts | 254° |
| 2026-05-06 04:17 | 12.95432 | -59.45690 | 11011 ft | 336 kts | 253° |
| 2026-05-06 04:17 | 12.94784 | -59.47977 | 10750 ft | 327 kts | 253° |
| 2026-05-06 04:18 | 12.94179 | -59.50142 | 10496 ft | 313 kts | 253° |
| 2026-05-06 04:18 | 12.93592 | -59.52269 | 10242 ft | 307 kts | 253° |
| 2026-05-06 04:18 | 12.93016 | -59.54378 | 9989 ft | 304 kts | 253° |
| 2026-05-06 04:18 | 12.92463 | -59.56433 | 9547 ft | 300 kts | 253° |
| 2026-05-06 04:19 | 12.91917 | -59.58501 | 8995 ft | 300 kts | 253° |
| 2026-05-06 04:19 | 12.91373 | -59.60574 | 8413 ft | 301 kts | 253° |
| 2026-05-06 04:19 | 12.90830 | -59.62629 | 7874 ft | 300 kts | 253° |
| 2026-05-06 04:19 | 12.90290 | -59.64671 | 7365 ft | 299 kts | 254° |
| 2026-05-06 04:20 | 12.89746 | -59.66710 | 6873 ft | 296 kts | 253° |
| 2026-05-06 04:20 | 12.89202 | -59.68741 | 6374 ft | 293 kts | 253° |
| 2026-05-06 04:20 | 12.88661 | -59.70752 | 5872 ft | 292 kts | 253° |
| 2026-05-06 04:20 | 12.88127 | -59.72736 | 5364 ft | 290 kts | 253° |
| 2026-05-06 04:21 | 12.87599 | -59.74685 | 5175 ft | 276 kts | 253° |
| 2026-05-06 04:21 | 12.87110 | -59.76503 | 5253 ft | 248 kts | 253° |
| 2026-05-06 04:21 | 12.86847 | -59.78162 | 5040 ft | 238 kts | 277° |
| 2026-05-06 04:21 | 12.87531 | -59.79666 | 4563 ft | 233 kts | 319° |
| 2026-05-06 04:22 | 12.88931 | -59.80348 | 4059 ft | 223 kts | 0° |
| 2026-05-06 04:22 | 12.90438 | -59.80188 | 3627 ft | 217 kts | 15° |
| 2026-05-06 04:22 | 12.91812 | -59.79641 | 3188 ft | 208 kts | 40° |
| 2026-05-06 04:23 | 12.94145 | -59.77934 | 2816 ft | 205 kts | 37° |
| 2026-05-06 04:23 | 12.95343 | -59.77141 | 2693 ft | 205 kts | 36° |
| 2026-05-06 04:23 | 12.96547 | -59.76372 | 2559 ft | 196 kts | 36° |
| 2026-05-06 04:23 | 12.97682 | -59.75662 | 2402 ft | 184 kts | 36° |
| 2026-05-06 04:24 | 12.98753 | -59.74997 | 2245 ft | 175 kts | 36° |
| 2026-05-06 04:24 | 12.99786 | -59.74361 | 2101 ft | 171 kts | 36° |
| 2026-05-06 04:24 | 13.00810 | -59.73730 | 1996 ft | 172 kts | 36° |
| 2026-05-06 04:24 | 13.01560 | -59.72850 | 1972 ft | 166 kts | 70° |
| 2026-05-06 04:25 | 13.01877 | -59.71701 | 1966 ft | 168 kts | 76° |
| 2026-05-06 04:25 | 13.02173 | -59.70533 | 1934 ft | 168 kts | 76° |
| 2026-05-06 04:25 | 13.02465 | -59.69368 | 1900 ft | 168 kts | 76° |
| 2026-05-06 04:25 | 13.02754 | -59.68211 | 1868 ft | 168 kts | 76° |
| 2026-05-06 04:26 | 13.03046 | -59.67035 | 1832 ft | 169 kts | 76° |
| 2026-05-06 04:26 | 13.03333 | -59.65880 | 1799 ft | 168 kts | 76° |
| 2026-05-06 04:26 | 13.03622 | -59.64712 | 1763 ft | 169 kts | 76° |
| 2026-05-06 04:26 | 13.03913 | -59.63540 | 1729 ft | 168 kts | 76° |
| 2026-05-06 04:27 | 13.04200 | -59.62381 | 1693 ft | 168 kts | 76° |
| 2026-05-06 04:27 | 13.04488 | -59.61221 | 1658 ft | 168 kts | 76° |
| 2026-05-06 04:27 | 13.04777 | -59.60052 | 1624 ft | 168 kts | 76° |
| 2026-05-06 04:27 | 13.05062 | -59.58900 | 1593 ft | 163 kts | 76° |
| 2026-05-06 04:28 | 13.05319 | -59.57864 | 1551 ft | 138 kts | 76° |
| 2026-05-06 04:28 | 13.05541 | -59.56967 | 1374 ft | 118 kts | 77° |
| 2026-05-06 04:28 | 13.05727 | -59.56220 | 1201 ft | 102 kts | 77° |
| 2026-05-06 04:28 | 13.05899 | -59.55524 | 1081 ft | 99 kts | 77° |
| 2026-05-06 04:29 | 13.06069 | -59.54836 | 976 ft | 100 kts | 77° |
| 2026-05-06 04:29 | 13.06243 | -59.54132 | 853 ft | 102 kts | 78° |
| 2026-05-06 04:29 | 13.06419 | -59.53423 | 724 ft | 104 kts | 78° |
| 2026-05-06 04:29 | 13.06598 | -59.52699 | 589 ft | 104 kts | 78° |
| 2026-05-06 04:30 | 13.06777 | -59.51980 | 460 ft | 105 kts | 77° |
| 2026-05-06 04:30 | 13.06961 | -59.51247 | 341 ft | 105 kts | 78° |
| 2026-05-06 04:30 | 13.07142 | -59.50518 | 195 ft | 106 kts | 78° |
| 2026-05-06 04:30 | 13.07315 | -59.49821 | 172 ft | 85 kts | 77° |
| 2026-05-06 04:31 | 13.07429 | -59.49347 | 171 ft | 59 kts | 76° |
| 2026-05-06 04:31 | 13.07520 | -59.49025 | 174 ft | 29 kts | 58° |
| 2026-05-06 04:31 | 13.07616 | -59.48912 | 174 ft | 9 kts | 46° |
| 2026-05-06 04:31 | 13.07653 | -59.48873 | 174 ft | 0 kts | 46° |
| 2026-05-06 04:33 | 13.07661 | -59.48864 | 174 ft | 3 kts | 46° |
| 2026-05-06 04:33 | 13.07689 | -59.48836 | 174 ft | 6 kts | 35° |
| 2026-05-06 04:33 | 13.07715 | -59.48858 | 175 ft | 8 kts | 270° |
| 2026-05-06 04:34 | 13.07701 | -59.48929 | 176 ft | 11 kts | 256° |
| 2026-05-06 04:34 | 13.07681 | -59.49009 | 177 ft | 12 kts | 255° |
| 2026-05-06 04:34 | 13.07658 | -59.49097 | 178 ft | 13 kts | 255° |
| 2026-05-06 04:34 | 13.07636 | -59.49191 | 178 ft | 14 kts | 256° |
| 2026-05-06 04:35 | 13.07641 | -59.49246 | 179 ft | 5 kts | 321° |
| 2026-05-06 04:35 | 13.07662 | -59.49256 | 179 ft | 3 kts | 348° |
| 2026-05-06 04:35 | 13.07674 | -59.49260 | 180 ft | 0 kts | 346° |
| 2026-05-06 04:35 | 13.07675 | -59.49260 | 180 ft | 0 kts | 346° |
| 2026-05-06 04:39 | 13.07673 | -59.49260 | 180 ft | 0 kts | 346° |
| 2026-05-06 04:39 | 13.07672 | -59.49259 | 179 ft | 0 kts | 346° |
| 2026-05-06 04:40 | 13.07670 | -59.49259 | 179 ft | 0 kts | 347° |
| 2026-05-06 04:40 | 13.07667 | -59.49258 | 179 ft | 0 kts | 347° |
| 2026-05-06 04:40 | 13.07662 | -59.49257 | 179 ft | 0 kts | 347° |
| 2026-05-06 04:40 | 13.07654 | -59.49255 | 179 ft | 1 kts | 347° |
| 2026-05-06 04:41 | 13.07641 | -59.49252 | 178 ft | 2 kts | 347° |
| 2026-05-06 04:41 | 13.07624 | -59.49249 | 178 ft | 2 kts | 347° |
| 2026-05-06 04:41 | 13.07622 | -59.49248 | 178 ft | 0 kts | 347° |
| 2026-05-06 04:42 | 13.07669 | -59.49258 | 179 ft | 0 kts | 347° |
| 2026-05-06 04:42 | 13.07674 | -59.49257 | 179 ft | 0 kts | 347° |
| 2026-05-06 04:42 | 13.07675 | -59.49260 | 180 ft | 0 kts | 347° |